Latest Weather Observations for Bourke

IDN60801

Issued at 6:12 pm EST Friday 21 September 2018 (issued every 10 minutes, with the page automatically refreshed every 10 minutes)

About weather observations | Map of weather stations | Latest weather observations for NSW | Other Formats
Station Details ID: 048245 Name: BOURKE AIRPORT AWS Lat: -30.04 Lon: 145.95 Height: 107.3 m
Data from the previous 72 hours. | See also: Recent months at Bourke
Date/Time
EST
Temp
°C
App
Temp
°C
Dew
Point
°C
Rel
Hum
%
Delta-T
°C
Wind Press
QNH
hPa
Press
MSL
hPa
Rain since
9am
mm
Dir  Spd
km/h
Gust
km/h
Spd
kts
Gust
kts
21/06:00pm 21.5 17.0 -7.1 14 11.1 SSW 9 11 5 6 1024.8 1024.6 0.0
21/05:30pm 23.0 18.5 -6.9 13 11.9 SE 9 13 5 7 1024.7 1024.5 0.0
21/05:00pm 23.5 19.4 -6.5 13 12.0 SSE 7 15 4 8 1024.6 1024.4 0.0
21/04:30pm 24.2 19.8 -5.9 13 12.4 WSW 9 13 5 7 1024.6 1024.4 0.0
21/04:00pm 23.9 19.1 -6.2 13 12.2 SSW 11 17 6 9 1024.4 1024.2 0.0
21/03:30pm 23.3 18.8 -6.6 13 12.0 SE 9 15 5 8 1024.4 1024.2 0.0
21/03:00pm 23.5 19.0 -6.5 13 12.0 SSW 9 24 5 13 1024.7 1024.5 0.0
21/02:30pm 23.6 19.6 -5.4 14 12.0 E 7 9 4 5 1025.0 1024.8 0.0
21/02:00pm 23.8 19.5 -5.3 14 12.0 WNW 9 17 5 9 1025.2 1025.0 0.0
21/01:30pm 23.6 19.2 -5.4 14 12.0 WSW 9 15 5 8 1025.8 1025.6 0.0
21/01:00pm 22.9 17.8 -5.1 15 11.5 SW 13 33 7 18 1026.1 1026.0 0.0
21/12:30pm 22.1 17.8 -4.9 16 11.1 NE 9 17 5 9 1026.6 1026.5 0.0
21/12:00pm 21.9 17.7 -4.2 17 10.8 SE 9 13 5 7 1027.0 1026.9 0.0
21/11:30am 21.5 16.9 -3.8 18 10.6 E 11 19 6 10 1027.4 1027.3 0.0
21/11:00am 20.7 16.5 -3.7 19 10.1 WSW 9 24 5 13 1027.7 1027.6 0.0
21/10:30am 20.4 15.1 -3.3 20 9.9 E 15 22 8 12 1027.8 1027.7 0.0
21/10:00am 20.1 14.2 -2.3 22 9.4 ESE 19 28 10 15 1028.0 1027.9 0.0
21/09:30am 19.0 13.8 -2.6 23 9.0 ESE 15 24 8 13 1028.3 1028.2 0.0
21/09:00am 17.5 12.4 -1.7 27 8.0 ESE 15 20 8 11 1028.2 1028.1 0.0
21/08:30am 15.5 10.7 -2.4 29 7.3 ESE 13 17 7 9 1028.0 1027.9 0.0
21/08:00am 12.7 7.8 -3.1 33 6.1 SE 13 17 7 9 1027.8 1027.7 0.0
21/07:30am 11.1 6.2 -3.4 36 5.5 SSE 13 19 7 10 1027.5 1027.4 0.0
21/07:00am 9.9 5.1 -2.7 41 4.7 SSE 13 15 7 8 1027.2 1027.1 0.0
21/06:30am 7.8 3.3 -3.4 45 4.1 SSE 11 13 6 7 1026.6 1026.5 0.0
21/06:00am 7.3 2.8 -3.5 46 3.9 SSE 11 13 6 7 1026.2 1026.1 0.0
21/05:30am 7.6 3.1 -3.6 45 4.0 SSE 11 13 6 7 1025.8 1025.6 0.0
21/05:00am 8.3 3.8 -3.5 43 4.3 SSE 11 15 6 8 1025.5 1025.3 0.0
21/04:30am 8.7 3.8 -3.5 42 4.5 SSE 13 15 7 8 1025.0 1024.8 0.0
21/04:00am 8.6 4.1 -3.6 42 4.4 SSE 11 13 6 7 1024.6 1024.4 0.0
21/03:30am 8.1 3.8 -4.7 40 4.5 SSE 9 11 5 6 1024.7 1024.5 0.0
21/03:00am 9.2 4.9 -4.4 38 4.9 SSE 9 13 5 7 1024.6 1024.4 0.0
21/02:30am 10.2 5.5 -4.6 35 5.4 SSE 11 13 6 7 1024.6 1024.4 0.0
21/02:00am 11.0 5.6 -4.6 33 5.7 S 15 17 8 9 1024.7 1024.5 0.0
21/01:30am 10.8 5.8 -4.4 34 5.6 SSE 13 17 7 9 1025.0 1024.8 0.0
21/01:00am 9.4 4.7 -5.3 35 5.2 S 11 13 6 7 1025.1 1024.9 0.0
21/12:30am 8.7 4.3 -5.5 36 5.0 SSW 9 11 5 6 1025.2 1025.0 0.0
21/12:00am 9.0 4.6 -6.0 34 5.2 SW 9 13 5 7 1025.2 1025.0 0.0
 
Date/Time
EST
Temp
°C
App
Temp
°C
Dew
Point
°C
Rel
Hum
%
Delta-T
°C
Wind Press
QNH
hPa
Press
MSL
hPa
Rain since
9am
mm
Dir  Spd
km/h
Gust
km/h
Spd
kts
Gust
kts
20/11:30pm 8.7 4.2 -6.6 33 5.2 SW 9 11 5 6 1025.2 1025.0 0.0
20/11:00pm 9.3 4.8 -6.5 32 5.4 SW 9 9 5 5 1025.2 1025.0 0.0
20/10:30pm 8.9 4.8 -6.9 32 5.3 WSW 7 9 4 5 1025.2 1025.0 0.0
20/10:00pm 10.4 6.3 -6.8 29 5.9 SW 7 9 4 5 1025.0 1024.8 0.0
20/09:30pm 10.9 6.9 -6.0 30 6.0 SSW 7 9 4 5 1024.8 1024.6 0.0
20/09:00pm 10.8 6.7 -6.5 29 6.0 S 7 7 4 4 1024.5 1024.3 0.0
20/08:30pm 12.4 8.9 -6.0 27 6.6 S 4 6 2 3 1024.2 1024.0 0.0
20/08:00pm 14.3 9.9 -5.4 25 7.3 SSW 9 11 5 6 1023.7 1023.5 0.0
20/07:30pm 14.8 10.8 -5.5 24 7.6 SSW 7 9 4 5 1023.1 1022.9 0.0
20/07:00pm 16.1 12.1 -5.6 22 8.2 SSW 7 9 4 5 1022.6 1022.4 0.0
20/06:30pm 18.0 13.3 -5.3 20 9.1 SSW 11 15 6 8 1022.1 1021.9 0.0
20/06:00pm 19.5 14.5 -4.7 19 9.7 SSW 13 19 7 10 1021.6 1021.4 0.0
20/05:30pm 20.5 14.2 -5.4 17 10.4 SW 19 24 10 13 1021.3 1021.1 0.0
20/05:00pm 20.9 14.7 -5.0 17 10.5 S 19 30 10 16 1021.0 1020.8 0.0
20/04:30pm 21.0 14.6 -4.9 17 10.5 SSW 20 30 11 16 1020.8 1020.6 0.0
20/04:00pm 21.2 15.5 -4.0 18 10.4 SW 17 32 9 17 1020.5 1020.3 0.0
20/03:30pm 21.2 15.0 -4.8 17 10.6 SSW 19 32 10 17 1020.6 1020.4 0.0
20/03:00pm 21.2 15.1 -4.0 18 10.4 SW 19 30 10 16 1020.6 1020.4 0.0
20/02:30pm 21.0 14.8 -3.5 19 10.2 SSW 20 33 11 18 1020.9 1020.7 0.0
20/02:00pm 20.3 13.2 -4.0 19 9.9 S 24 41 13 22 1021.0 1020.8 0.0
20/01:30pm 21.1 14.5 -3.4 19 10.3 S 22 35 12 19 1021.4 1021.2 0.0
20/01:00pm 20.1 13.5 -3.5 20 9.7 SW 22 37 12 20 1021.7 1021.5 0.0
20/12:46pm 20.0 12.2 -3.6 20 9.7 SW 28 46 15 25 1021.8 1021.6 0.0
20/12:30pm 20.0 14.0 -3.0 21 9.6 SW 19 30 10 16 1021.9 1021.7 0.0
20/12:00pm 19.3 13.1 -3.5 21 9.3 SW 20 37 11 20 1022.1 1021.9 0.0
20/11:30am 19.8 13.3 -2.5 22 9.4 SW 22 35 12 19 1022.4 1022.2 0.0
20/11:00am 18.0 11.3 -4.0 22 8.8 SSW 22 32 12 17 1022.6 1022.4 0.0
20/10:30am 18.3 11.3 -3.8 22 8.9 S 24 35 13 19 1022.7 1022.5 0.0
20/10:00am 18.2 11.7 -2.1 25 8.5 S 22 32 12 17 1022.6 1022.4 0.0
20/09:30am 17.2 11.3 -2.4 26 8.1 SSW 19 26 10 14 1022.5 1022.3 0.0
20/09:00am 15.5 9.3 -2.9 28 7.3 S 20 28 11 15 1022.6 1022.4 0.0
20/08:30am 14.6 9.0 -3.2 29 7.0 SSW 17 20 9 11 1022.2 1022.0 0.0
20/08:00am 12.8 7.5 -3.5 32 6.2 SSW 15 20 8 11 1021.9 1021.7 0.0
20/07:30am 10.8 6.2 -4.4 34 5.6 SW 11 15 6 8 1021.6 1021.4 0.0
20/07:00am 8.9 4.6 -5.0 37 4.9 SW 9 13 5 7 1021.0 1020.8 0.0
20/06:30am 6.6 2.2 -5.7 41 4.2 SW 9 11 5 6 1020.6 1020.4 0.0
20/06:00am 5.6 1.1 -6.6 41 4.0 SW 9 11 5 6 1020.2 1020.0 0.0
20/05:30am 6.3 1.4 -6.9 38 4.3 SW 11 13 6 7 1019.8 1019.6 0.0
20/05:00am 7.4 3.0 -6.3 37 4.6 WSW 9 13 5 7 1019.5 1019.3 0.0
20/04:30am 7.7 3.2 -6.4 36 4.8 WSW 9 13 5 7 1019.1 1019.0 0.0
20/04:00am 8.2 3.3 -6.7 34 5.0 WSW 11 13 6 7 1018.7 1018.6 0.0
20/03:30am 8.0 2.7 -7.3 33 5.1 SW 13 15 7 8 1018.3 1018.2 0.0
20/03:00am 8.9 4.0 -6.9 32 5.3 WSW 11 15 6 8 1018.2 1018.1 0.0
20/02:30am 8.8 3.5 -7.0 32 5.3 WSW 13 15 7 8 1018.2 1018.1 0.0
20/02:00am 10.1 4.9 -6.7 30 5.8 WSW 13 17 7 9 1018.3 1018.2 0.0
20/01:30am 10.4 5.1 -6.8 29 5.9 WSW 13 17 7 9 1018.4 1018.3 0.0
20/01:00am 10.3 5.0 -6.9 29 5.9 WSW 13 15 7 8 1018.5 1018.4 0.0
20/12:30am 11.5 6.6 -6.8 27 6.4 WSW 11 19 6 10 1018.4 1018.3 0.0
20/12:00am 11.3 6.1 -6.5 28 6.3 WSW 13 17 7 9 1018.2 1018.1 0.0
 
Date/Time
EST
Temp
°C
App
Temp
°C
Dew
Point
°C
Rel
Hum
%
Delta-T
°C
Wind Press
QNH
hPa
Press
MSL
hPa
Rain since
9am
mm
Dir  Spd
km/h
Gust
km/h
Spd
kts
Gust
kts
19/11:30pm 11.9 6.7 -6.5 27 6.5 WSW 13 17 7 9 1018.1 1017.9 0.0
19/11:00pm 13.0 7.8 -6.5 25 7.0 WSW 13 20 7 11 1018.1 1017.9 0.0
19/10:30pm 13.6 7.6 -6.6 24 7.3 WSW 17 22 9 12 1017.9 1017.7 0.0
19/10:00pm 14.4 8.0 -6.4 23 7.6 WSW 19 24 10 13 1017.8 1017.6 0.0
19/09:30pm 14.9 8.5 -6.6 22 7.9 WSW 19 28 10 15 1017.4 1017.2 0.0
19/09:00pm 15.6 9.7 -6.0 22 8.1 WSW 17 26 9 14 1017.2 1017.0 0.0
19/08:30pm 16.1 9.8 -6.2 21 8.4 WSW 19 26 10 14 1016.9 1016.7 0.0
19/08:00pm 16.9 10.6 -6.2 20 8.7 WSW 19 32 10 17 1016.5 1016.3 0.0
19/07:30pm 17.7 11.2 -5.5 20 9.0 WSW 20 28 11 15 1015.8 1015.6 0.0
19/07:00pm 18.5 12.1 -4.9 20 9.3 WSW 20 30 11 16 1015.3 1015.1 0.0
19/06:30pm 19.4 13.2 -3.5 21 9.4 WSW 20 32 11 17 1014.9 1014.7 0.0
19/06:00pm 20.5 14.3 -3.2 20 9.9 W 20 32 11 17 1014.5 1014.3 0.0
19/05:30pm 21.7 15.7 -2.9 19 10.5 WSW 19 28 10 15 1013.9 1013.7 0.0
19/05:00pm 22.4 15.5 -2.3 19 10.7 WSW 24 33 13 18 1013.5 1013.3 0.0
19/04:30pm 23.0 16.9 -2.6 18 11.1 WSW 20 30 11 16 1013.2 1013.0 0.0
19/04:00pm 23.1 16.9 -3.3 17 11.3 SW 20 39 11 21 1012.7 1012.5 0.0
19/03:30pm 23.6 17.5 -3.7 16 11.6 SW 19 32 10 17 1012.6 1012.4 0.0
19/03:00pm 24.0 18.4 -2.5 17 11.6 WSW 17 26 9 14 1012.9 1012.7 0.0
19/02:30pm 23.7 18.2 -2.0 18 11.3 WSW 17 32 9 17 1013.2 1013.0 0.0
19/02:00pm 23.3 18.3 -0.9 20 10.9 WSW 15 24 8 13 1013.5 1013.3 0.0
19/01:30pm 23.0 18.0 -1.1 20 10.7 SW 15 26 8 14 1013.9 1013.7 0.0
19/01:00pm 22.2 17.6 -1.1 21 10.3 SW 13 20 7 11 1013.9 1013.7 0.0
19/12:30pm 20.5 15.2 -0.7 24 9.3 SSW 17 26 9 14 1014.5 1014.3 0.0
19/12:00pm 19.8 13.9 -0.8 25 9.0 SSW 20 32 11 17 1014.8 1014.6 0.0
19/11:30am 19.5 12.8 -1.0 25 8.9 SW 24 32 13 17 1015.0 1014.8 0.0
19/11:00am 19.0 12.1 0.1 28 8.3 SSW 26 35 14 19 1015.0 1014.8 0.0
19/10:30am 18.3 12.0 1.8 33 7.5 SSW 24 33 13 18 1015.0 1014.8 0.0
19/10:00am 18.6 12.1 2.4 34 7.5 SSW 26 35 14 19 1014.5 1014.3 0.0
19/09:30am 19.0 13.3 2.8 34 7.5 SSW 22 33 12 18 1014.6 1014.4 0.0
19/09:00am 17.8 11.1 1.7 34 7.3 SSW 26 33 14 18 1014.1 1013.9 0.0
19/08:30am 17.4 11.4 1.0 33 7.3 SSW 22 37 12 20 1014.3 1014.1 0.0
19/08:00am 15.9 10.5 -4.1 25 7.8 SSW 15 20 8 11 1014.0 1013.8 0.0
19/07:30am 14.0 9.2 -9.9 18 8.1 SW 9 13 5 7 1013.1 1012.9 0.0
19/07:00am 12.8 7.6 -10.9 18 7.7 SW 11 15 6 8 1012.4 1012.2 0.0
19/06:30am 13.1 7.1 -11.4 17 7.9 WSW 15 24 8 13 1012.1 1011.9 0.0
19/06:00am 9.8 4.7 -8.8 26 6.1 NNW 11 32 6 17 1011.8 1011.6 0.0
19/05:30am 8.8 4.1 -9.1 27 5.7 NNE 9 11 5 6 1010.8 1010.6 0.0
19/05:00am 8.7 4.5 -9.7 26 5.8 NNE 6 7 3 4 1010.8 1010.6 0.0
19/04:30am 9.0 3.9 -9.4 26 5.9 NNE 11 13 6 7 1010.7 1010.5 0.0
19/04:00am 9.9 5.7 -9.7 24 6.3 NW 6 7 3 4 1010.5 1010.3 0.0
19/03:30am 10.9 6.8 -9.4 23 6.7 W 6 7 3 4 1010.7 1010.5 0.0
19/03:00am 11.8 7.5 -9.2 22 7.0 NW 7 9 4 5 1010.6 1010.4 0.0
19/02:30am 9.5 4.1 -8.1 28 5.8 NE 13 15 7 8 1010.2 1009.9 0.0
19/02:00am 8.2 5.2 -9.7 27 5.6 CALM 0 0 0 0 1011.0 1010.8 0.0
19/01:30am 8.5 5.4 -10.4 25 5.8 CALM 0 0 0 0 1011.6 1011.4 0.0
19/01:00am 9.1 4.7 -10.4 24 6.1 NE 7 9 4 5 1011.8 1011.6 0.0
19/12:30am 9.6 5.2 -10.5 23 6.3 NE 7 9 4 5 1012.1 1011.9 0.0
19/12:00am 10.3 5.5 -9.9 23 6.5 NE 9 11 5 6 1012.2 1012.0 0.0
 
Date/Time
EST
Temp
°C
App
Temp
°C
Dew
Point
°C
Rel
Hum
%
Delta-T
°C
Wind Press
QNH
hPa
Press
MSL
hPa
Rain since
9am
mm
Dir  Spd
km/h
Gust
km/h
Spd
kts
Gust
kts
18/11:30pm 9.7 4.6 -9.9 24 6.2 NE 11 11 6 6 1012.6 1012.4 0.0
18/11:00pm 10.7 7.7 -9.6 23 6.6 CALM 0 0 0 0 1012.6 1012.4 0.0
18/10:30pm 10.7 7.6 -10.7 21 6.8 CALM 0 0 0 0 1012.8 1012.6 0.0
18/10:00pm 12.2 9.2 -8.9 22 7.1 CALM 0 0 0 0 1012.8 1012.6 0.0
18/09:30pm 12.0 9.0 -9.6 21 7.2 CALM 0 0 0 0 1012.8 1012.6 0.0
18/09:00pm 12.9 9.8 -10.1 19 7.6 CALM 0 0 0 0 1012.7 1012.5 0.0
18/08:30pm 14.3 11.1 -11.9 15 8.5 CALM 0 0 0 0 1012.9 1012.7 0.0
18/08:00pm 15.4 12.3 -10.3 16 8.8 CALM 0 0 0 0 1012.8 1012.6 0.0
18/07:30pm 16.4 12.1 -11.1 14 9.3 NW 6 7 3 4 1012.6 1012.4 0.0
18/07:00pm 18.4 13.9 -11.5 12 10.3 NW 7 7 4 4 1012.4 1012.2 0.0
18/06:30pm 22.0 17.5 -11.0 10 12.0 NW 7 9 4 5 1012.3 1012.1 0.0

Other Formats:

Comma delimited format used in spreadsheet applications
http://www.bom.gov.au/fwo/IDN60801/IDN60801.94703.axf

JavaScript Object Notation format (JSON) in row-major order
http://www.bom.gov.au/fwo/IDN60801/IDN60801.94703.json